Time;durP1;ratioP1;P1;durP2;ratioP2;P2;SDS_P1;SDS_P2;PMS_P1;PMS_P2;Temp;Humidity;BMP_temperature;BMP_pressure;BME280_temperature;BME280_humidity;BME280_pressure;Samples;Min_cycle;Max_cycle;Signal;HPM_P1;HPM_P2
2023/12/01 00:01:38;;;;;;;13.47;8.67;;;1.00;99.90;0.70;99144.00;;;;4952860;28;87865;-70
2023/12/01 00:04:04;;;;;;;13.07;8.07;;;1.00;99.90;0.60;99143.00;;;;4951268;28;117832;-70
2023/12/01 00:06:29;;;;;;;16.57;8.33;;;0.90;99.90;0.60;99150.00;;;;4956275;28;115040;-69
2023/12/01 00:08:55;;;;;;;14.43;10.13;;;0.90;99.90;0.60;99132.00;;;;4957842;28;89270;-70
2023/12/01 00:11:21;;;;;;;14.30;9.53;;;0.90;99.90;0.60;99141.00;;;;4954725;28;106884;-71
2023/12/01 00:13:46;;;;;;;14.93;9.77;;;0.90;99.90;0.50;99146.00;;;;4949271;28;101823;-71
2023/12/01 00:16:12;;;;;;;13.67;7.10;;;0.80;99.90;0.50;99137.00;;;;4956034;28;104530;-71
2023/12/01 00:18:38;;;;;;;11.47;8.23;;;0.90;99.90;0.50;99137.00;;;;4962034;28;103359;-71
2023/12/01 00:21:04;;;;;;;11.70;8.23;;;0.90;99.90;0.50;99140.00;;;;4933115;28;89198;-70
2023/12/01 00:23:30;;;;;;;16.57;9.83;;;0.80;99.90;0.50;99137.00;;;;4949744;28;103412;-71
2023/12/01 00:25:56;;;;;;;15.20;9.27;;;0.90;99.90;0.50;99144.00;;;;4956266;28;88522;-71
2023/12/01 00:28:22;;;;;;;16.57;10.07;;;0.70;99.90;0.50;99142.00;;;;4945505;28;100329;-70
2023/12/01 00:30:48;;;;;;;14.03;7.97;;;0.80;99.90;0.50;99136.00;;;;4949628;28;87973;-70
2023/12/01 00:33:14;;;;;;;16.07;10.80;;;0.80;99.90;0.50;99147.00;;;;4952484;28;87814;-70
2023/12/01 00:35:39;;;;;;;14.77;10.77;;;0.70;99.90;0.50;99145.00;;;;4957162;28;118446;-72
2023/12/01 00:38:06;;;;;;;13.90;10.17;;;0.70;99.90;0.50;99150.00;;;;4950514;28;112975;-72
2023/12/01 00:40:32;;;;;;;17.70;10.77;;;0.80;99.90;0.50;99154.00;;;;4957893;28;87755;-70
2023/12/01 00:42:57;;;;;;;18.67;10.57;;;0.80;99.90;0.50;99154.00;;;;4954559;28;106086;-71
2023/12/01 00:45:23;;;;;;;17.90;10.10;;;0.90;99.90;0.60;99150.00;;;;4959436;28;115999;-71
2023/12/01 00:47:49;;;;;;;15.67;8.67;;;0.90;99.90;0.50;99163.00;;;;4955168;28;95476;-71
2023/12/01 00:50:14;;;;;;;14.70;9.97;;;0.90;99.90;0.60;99165.00;;;;4958618;28;108950;-71
2023/12/01 00:52:40;;;;;;;10.60;8.50;;;1.00;99.90;0.60;99167.00;;;;4957348;28;123325;-71
2023/12/01 00:55:06;;;;;;;12.60;9.67;;;0.80;99.90;0.60;99175.00;;;;4966632;28;117607;-71
2023/12/01 00:57:32;;;;;;;13.63;10.00;;;0.90;99.90;0.60;99176.00;;;;4959044;28;87912;-71
2023/12/01 00:59:57;;;;;;;19.87;10.53;;;0.90;99.90;0.60;99180.00;;;;4957945;28;89194;-71
2023/12/01 01:02:23;;;;;;;9.97;8.80;;;0.90;99.90;0.60;99184.00;;;;4956190;28;116127;-71
2023/12/01 01:04:49;;;;;;;12.23;9.13;;;0.80;99.90;0.60;99189.00;;;;4958255;28;115580;-71
2023/12/01 01:07:15;;;;;;;11.27;8.73;;;0.90;99.90;0.60;99192.00;;;;4956977;28;87824;-71
2023/12/01 01:09:40;;;;;;;9.93;8.50;;;1.00;99.90;0.60;99192.00;;;;4944918;28;90799;-70
2023/12/01 01:12:06;;;;;;;19.37;11.83;;;0.90;99.90;0.60;99197.00;;;;4957271;28;117636;-71
2023/12/01 01:14:32;;;;;;;14.37;8.93;;;0.90;99.90;0.60;99195.00;;;;4969871;28;89034;-71
2023/12/01 01:16:57;;;;;;;15.00;9.57;;;1.00;99.90;0.60;99191.00;;;;4958461;28;113110;-71
2023/12/01 01:19:23;;;;;;;12.83;9.77;;;0.90;99.90;0.60;99180.00;;;;4956474;28;87983;-71
2023/12/01 01:21:49;;;;;;;17.93;10.83;;;0.90;99.90;0.60;99192.00;;;;4953787;28;87795;-71
2023/12/01 01:24:15;;;;;;;22.87;10.07;;;1.00;99.90;0.60;99186.00;;;;4954097;28;118145;-71
2023/12/01 01:26:40;;;;;;;17.80;11.47;;;0.90;99.90;0.60;99182.00;;;;4958943;28;112285;-71
2023/12/01 01:29:06;;;;;;;14.97;11.70;;;1.60;99.90;0.60;99187.00;;;;4956036;28;109730;-71
2023/12/01 01:31:31;;;;;;;14.33;8.80;;;0.90;99.90;0.70;99181.00;;;;4956720;28;116163;-71
2023/12/01 01:33:57;;;;;;;19.30;11.30;;;0.90;99.90;0.60;99185.00;;;;4957400;28;115098;-70
2023/12/01 01:36:23;;;;;;;18.83;11.00;;;0.90;99.90;0.60;99179.00;;;;4958796;28;110472;-70
2023/12/01 01:38:49;;;;;;;16.53;10.00;;;0.90;99.90;0.60;99181.00;;;;4956687;28;107477;-70
2023/12/01 01:41:15;;;;;;;16.93;10.40;;;1.00;99.90;0.60;99175.00;;;;4955366;28;88842;-70
2023/12/01 01:43:41;;;;;;;23.20;9.93;;;0.90;99.90;0.60;99175.00;;;;4953072;28;121918;-70
2023/12/01 01:46:09;;;;;;;20.43;11.53;;;1.00;99.90;0.60;99164.00;;;;4959916;28;113095;-70
2023/12/01 01:48:35;;;;;;;14.60;11.47;;;1.00;99.90;0.60;99166.00;;;;4954942;28;87737;-69
2023/12/01 01:51:03;;;;;;;18.60;10.73;;;0.90;99.90;0.60;99175.00;;;;4962025;28;88262;-71
2023/12/01 01:53:30;;;;;;;15.70;10.40;;;1.00;99.90;0.60;99164.00;;;;4953685;28;88488;-70
2023/12/01 01:55:58;;;;;;;16.63;11.13;;;1.00;99.90;0.60;99168.00;;;;4947272;28;112537;-70
2023/12/01 01:58:26;;;;;;;16.57;11.07;;;1.00;99.90;0.70;99169.00;;;;4956493;28;90014;-70
2023/12/01 02:00:53;;;;;;;18.07;12.20;;;1.00;99.90;0.70;99169.00;;;;4955191;28;116576;-70
2023/12/01 02:03:21;;;;;;;14.37;10.67;;;1.00;99.90;0.70;99173.00;;;;4941929;28;90296;-70
2023/12/01 02:05:47;;;;;;;14.07;10.03;;;1.00;99.90;0.70;99172.00;;;;4962929;28;88009;-70
2023/12/01 02:08:28;;;;;;;13.27;9.27;;;1.00;99.90;0.70;99173.00;;;;4936215;28;87914;-70
2023/12/01 02:10:55;;;;;;;16.43;9.17;;;1.10;99.90;0.70;99184.00;;;;4962451;28;87811;-71
2023/12/01 02:13:22;;;;;;;11.17;8.07;;;1.00;99.90;0.70;99174.00;;;;4952770;28;87943;-70
2023/12/01 02:15:48;;;;;;;13.40;10.20;;;1.50;99.90;0.70;99170.00;;;;4956501;28;86757;-70
2023/12/01 02:18:24;;;;;;;16.07;10.63;;;1.00;99.90;0.70;99181.00;;;;4952004;28;87889;-70
2023/12/01 02:20:57;;;;;;;13.40;9.27;;;1.00;99.90;0.70;99191.00;;;;4948557;28;88252;-70
2023/12/01 02:23:23;;;;;;;17.47;8.80;;;1.00;99.90;0.80;99187.00;;;;4957476;28;101128;-70
2023/12/01 02:25:50;;;;;;;18.17;11.03;;;1.10;99.90;0.70;99178.00;;;;4956482;28;92859;-70
2023/12/01 02:28:16;;;;;;;19.43;10.40;;;1.00;99.90;0.70;99192.00;;;;4961596;28;88085;-70
2023/12/01 02:30:50;;;;;;;15.67;9.10;;;1.00;99.90;0.70;99185.00;;;;4950233;28;90518;-70
2023/12/01 02:33:17;;;;;;;16.90;10.23;;;1.10;99.90;0.70;99174.00;;;;4952634;28;88030;-70
2023/12/01 02:35:52;;;;;;;13.67;10.70;;;1.10;99.90;0.70;99180.00;;;;4961573;28;88867;-70
2023/12/01 02:38:18;;;;;;;16.67;10.93;;;1.00;99.90;0.70;99180.00;;;;4959704;28;89200;-70
2023/12/01 02:40:49;;;;;;;11.37;8.93;;;1.10;99.90;0.70;99164.00;;;;4951031;28;87353;-70
2023/12/01 02:43:16;;;;;;;12.57;10.77;;;1.10;99.90;0.70;99159.00;;;;4955531;28;88159;-70
2023/12/01 02:45:41;;;;;;;18.17;11.10;;;1.00;99.90;0.70;99162.00;;;;4958508;28;101064;-69
2023/12/01 02:48:08;;;;;;;14.80;10.47;;;1.00;99.90;0.70;99168.00;;;;4964244;28;99806;-71
2023/12/01 02:50:34;;;;;;;16.40;11.23;;;1.00;99.90;0.70;99158.00;;;;4957941;28;87829;-69
2023/12/01 02:53:01;;;;;;;13.17;8.83;;;1.80;99.90;0.70;99158.00;;;;4955464;28;88172;-70
2023/12/01 02:55:27;;;;;;;16.40;11.30;;;1.00;99.90;0.80;99153.00;;;;4955255;28;87741;-69
2023/12/01 02:57:54;;;;;;;25.23;11.77;;;1.00;99.90;0.80;99159.00;;;;4952390;28;102625;-70
2023/12/01 03:00:22;;;;;;;18.67;11.80;;;1.00;99.90;0.80;99154.00;;;;4950822;28;87752;-69
2023/12/01 03:02:50;;;;;;;17.20;12.37;;;1.10;99.90;0.80;99168.00;;;;4955197;28;88802;-69
2023/12/01 03:05:16;;;;;;;16.13;11.07;;;1.10;99.90;0.70;99163.00;;;;4961519;28;88487;-70
2023/12/01 03:07:42;;;;;;;20.30;11.80;;;1.10;99.90;0.80;99167.00;;;;4954543;28;91594;-70
2023/12/01 03:10:08;;;;;;;15.33;11.30;;;1.10;99.90;0.80;99166.00;;;;4951621;28;87800;-69
2023/12/01 03:12:35;;;;;;;22.87;12.03;;;1.00;99.90;0.80;99169.00;;;;4950733;28;90867;-69
2023/12/01 03:15:02;;;;;;;18.47;11.37;;;1.10;99.90;0.80;99168.00;;;;4934130;28;87861;-69
2023/12/01 03:17:27;;;;;;;13.73;10.40;;;1.10;99.90;0.80;99176.00;;;;4955603;28;90299;-69
2023/12/01 03:19:53;;;;;;;22.03;13.10;;;1.00;99.90;0.80;99189.00;;;;4952024;28;117883;-69
2023/12/01 03:22:19;;;;;;;19.57;13.53;;;1.10;99.90;0.80;99199.00;;;;4955130;28;88182;-69
2023/12/01 03:24:47;;;;;;;22.03;13.13;;;1.10;99.90;0.80;99202.00;;;;4963250;28;89886;-69
2023/12/01 03:27:16;;;;;;;19.87;12.73;;;1.10;99.90;0.80;99206.00;;;;4955122;28;87891;-69
2023/12/01 03:29:42;;;;;;;18.37;11.33;;;1.10;99.90;0.80;99199.00;;;;4949667;28;91017;-68
2023/12/01 03:32:08;;;;;;;16.33;10.73;;;1.10;99.90;0.80;99185.00;;;;4956621;28;117315;-69
2023/12/01 03:34:34;;;;;;;19.40;13.53;;;1.00;99.90;0.70;99188.00;;;;4953304;28;112827;-70
2023/12/01 03:37:00;;;;;;;17.83;11.67;;;1.90;99.90;0.80;99189.00;;;;4955912;28;90198;-69
2023/12/01 03:39:32;;;;;;;16.50;11.23;;;1.10;99.90;0.80;99199.00;;;;4954326;28;88434;-69
2023/12/01 03:41:58;;;;;;;16.07;11.63;;;1.20;99.90;0.80;99199.00;;;;4955635;28;88948;-69
2023/12/01 03:44:24;;;;;;;16.83;11.93;;;1.10;99.90;0.70;99195.00;;;;4957284;28;87996;-69
2023/12/01 03:46:50;;;;;;;19.27;11.57;;;1.10;99.90;0.80;99202.00;;;;4955446;28;99003;-70
2023/12/01 03:49:16;;;;;;;17.70;12.63;;;1.10;99.90;0.80;99188.00;;;;4933049;28;90025;-68
2023/12/01 03:51:41;;;;;;;18.53;10.20;;;1.00;99.90;0.80;99199.00;;;;4946875;28;117102;-69
2023/12/01 03:54:07;;;;;;;20.50;12.23;;;1.10;99.90;0.80;99191.00;;;;4949954;28;113242;-69
2023/12/01 03:56:36;;;;;;;22.27;12.73;;;1.80;99.90;0.80;99197.00;;;;4946993;28;107533;-69
2023/12/01 03:59:09;;;;;;;22.90;12.37;;;1.00;99.90;0.80;99193.00;;;;4957499;28;88915;-69
2023/12/01 04:01:37;;;;;;;14.93;10.23;;;1.10;99.90;0.70;99192.00;;;;4964658;28;88855;-69
2023/12/01 04:04:04;;;;;;;15.73;11.27;;;1.10;99.90;0.70;99189.00;;;;4954062;28;87813;-69
2023/12/01 04:06:32;;;;;;;20.00;12.17;;;1.70;99.90;0.70;99187.00;;;;4958646;28;88802;-70
2023/12/01 04:09:00;;;;;;;15.37;10.47;;;1.00;99.90;0.70;99185.00;;;;4949284;28;89459;-69
2023/12/01 04:11:25;;;;;;;13.93;10.43;;;1.10;99.90;0.70;99169.00;;;;4954823;28;88133;-70
2023/12/01 04:13:51;;;;;;;21.37;13.13;;;1.90;99.90;0.70;99179.00;;;;4952547;28;112536;-69
2023/12/01 04:16:16;;;;;;;17.80;13.20;;;1.00;99.90;0.70;99196.00;;;;4953065;28;108477;-69
2023/12/01 04:18:45;;;;;;;19.93;12.40;;;1.00;99.90;0.70;99193.00;;;;4957272;28;116268;-69
2023/12/01 04:21:11;;;;;;;19.87;12.60;;;1.00;99.90;0.70;99186.00;;;;4978553;28;88795;-69
2023/12/01 04:23:36;;;;;;;18.60;13.43;;;1.30;99.90;0.70;99196.00;;;;4956504;28;112297;-69
2023/12/01 04:26:02;;;;;;;21.67;14.10;;;1.00;99.90;0.70;99205.00;;;;4957583;28;108698;-70
2023/12/01 04:28:28;;;;;;;19.43;11.77;;;1.00;99.90;0.70;99208.00;;;;4957378;28;88433;-69
2023/12/01 04:30:53;;;;;;;19.43;12.20;;;1.00;99.90;0.70;99213.00;;;;4959517;28;118133;-69
2023/12/01 04:33:19;;;;;;;23.50;13.17;;;1.00;99.90;0.70;99217.00;;;;4957747;28;112337;-69
2023/12/01 04:35:45;;;;;;;16.93;12.10;;;1.00;99.90;0.70;99204.00;;;;4959562;28;107881;-70
2023/12/01 04:38:10;;;;;;;19.93;13.17;;;0.80;99.90;0.70;99215.00;;;;4941610;28;89345;-69
2023/12/01 04:40:39;;;;;;;15.70;11.60;;;0.90;99.90;0.70;99215.00;;;;4958039;28;88387;-69
2023/12/01 04:43:05;;;;;;;16.63;11.00;;;1.10;99.90;0.70;99213.00;;;;4961372;28;87125;-70
2023/12/01 04:45:34;;;;;;;20.17;13.80;;;1.00;99.90;0.70;99218.00;;;;4957865;28;106216;-69
2023/12/01 04:47:59;;;;;;;20.27;14.43;;;1.00;99.90;0.70;99214.00;;;;4956775;28;89363;-69
2023/12/01 04:50:29;;;;;;;19.93;13.87;;;1.00;99.90;0.70;99220.00;;;;4952935;28;89897;-69
2023/12/01 04:52:56;;;;;;;18.63;13.10;;;1.00;99.90;0.70;99210.00;;;;4954566;28;91460;-70
2023/12/01 04:55:28;;;;;;;23.10;13.83;;;1.00;99.90;0.60;99221.00;;;;4960740;28;96557;-69
2023/12/01 04:57:55;;;;;;;18.63;13.27;;;1.00;99.90;0.60;99210.00;;;;4965189;28;89405;-69
2023/12/01 05:00:25;;;;;;;26.17;16.67;;;0.90;99.90;0.60;99219.00;;;;4937287;27;107402;-68
2023/12/01 05:03:04;;;;;;;22.33;13.07;;;1.00;99.90;0.60;99203.00;;;;4970959;28;88106;-68
2023/12/01 05:05:36;;;;;;;23.37;13.03;;;1.70;99.90;0.60;99216.00;;;;4951520;28;87827;-69
2023/12/01 05:08:07;;;;;;;18.80;12.87;;;0.90;99.90;0.60;99219.00;;;;4960607;28;87875;-69
2023/12/01 05:10:34;;;;;;;17.90;13.10;;;1.40;99.90;0.60;99219.00;;;;4974573;28;87763;-69
2023/12/01 05:13:04;;;;;;;20.80;13.33;;;0.90;99.90;0.60;99217.00;;;;4957045;28;88167;-69
2023/12/01 05:15:33;;;;;;;20.40;13.77;;;0.90;99.90;0.60;99205.00;;;;4960489;28;88746;-69
2023/12/01 05:18:02;;;;;;;23.27;14.27;;;0.90;99.90;0.60;99212.00;;;;4946214;28;90024;-69
2023/12/01 05:20:29;;;;;;;15.60;11.33;;;0.90;99.90;0.60;99212.00;;;;4958456;28;88155;-69
2023/12/01 05:23:00;;;;;;;20.70;12.83;;;0.90;99.90;0.60;99217.00;;;;4955290;28;87872;-69
2023/12/01 05:25:32;;;;;;;20.53;13.03;;;0.90;99.90;0.60;99213.00;;;;4957701;28;88321;-69
2023/12/01 05:27:59;;;;;;;22.40;14.37;;;0.80;99.90;0.50;99211.00;;;;4953261;28;89295;-69
2023/12/01 05:30:31;;;;;;;21.20;13.83;;;0.80;99.90;0.50;99205.00;;;;4957160;28;90536;-69
2023/12/01 05:32:58;;;;;;;23.73;13.67;;;0.90;99.90;0.50;99220.00;;;;4954623;28;87158;-69
2023/12/01 05:35:25;;;;;;;24.00;13.70;;;0.80;99.90;0.50;99227.00;;;;4958165;28;87734;-68
2023/12/01 05:37:53;;;;;;;21.67;13.00;;;0.90;99.90;0.50;99227.00;;;;4951535;28;88861;-71
2023/12/01 05:40:34;;;;;;;20.47;13.93;;;0.90;99.90;0.50;99227.00;;;;4956762;28;88809;-70
2023/12/01 05:43:00;;;;;;;20.33;13.67;;;0.90;99.90;0.50;99226.00;;;;4947686;28;88332;-69
2023/12/01 05:45:33;;;;;;;19.97;14.80;;;0.80;99.90;0.50;99210.00;;;;4954991;28;89571;-69
2023/12/01 05:48:00;;;;;;;21.97;13.57;;;0.80;99.90;0.50;99224.00;;;;4951458;28;88048;-68
2023/12/01 05:50:31;;;;;;;26.43;16.37;;;0.80;99.90;0.50;99215.00;;;;4936014;28;90405;-70
2023/12/01 05:52:59;;;;;;;22.30;13.97;;;0.80;99.90;0.50;99223.00;;;;4949339;28;88055;-69
2023/12/01 05:55:28;;;;;;;21.50;14.77;;;0.90;99.90;0.50;99219.00;;;;4959184;28;87977;-69
2023/12/01 05:57:58;;;;;;;24.30;14.53;;;0.80;99.90;0.50;99220.00;;;;4954356;28;86842;-70
2023/12/01 06:00:29;;;;;;;19.33;14.07;;;0.80;99.90;0.50;99228.00;;;;4957932;28;88263;-69
2023/12/01 06:03:00;;;;;;;17.60;13.13;;;0.90;99.90;0.50;99237.00;;;;4950797;28;87960;-70
2023/12/01 06:05:27;;;;;;;26.03;14.80;;;0.80;99.90;0.50;99228.00;;;;4950124;28;89063;-69
2023/12/01 06:07:58;;;;;;;24.87;15.70;;;0.90;99.90;0.50;99230.00;;;;4954312;28;88095;-68
2023/12/01 06:10:26;;;;;;;18.40;13.57;;;0.90;99.90;0.50;99226.00;;;;4958929;28;88189;-68
2023/12/01 06:12:52;;;;;;;23.07;14.97;;;0.80;99.90;0.50;99229.00;;;;4965979;28;106431;-69
2023/12/01 06:15:19;;;;;;;26.50;15.83;;;1.70;99.90;0.50;99230.00;;;;4954984;28;90182;-69
2023/12/01 06:17:47;;;;;;;20.60;14.77;;;1.70;99.90;0.50;99224.00;;;;4958350;28;91004;-68
2023/12/01 06:20:17;;;;;;;26.67;14.33;;;0.90;99.90;0.50;99228.00;;;;4958370;28;106487;-68
2023/12/01 06:23:05;;;;;;;31.00;15.60;;;0.80;99.90;0.50;99230.00;;;;4955852;28;86928;-68
2023/12/01 06:25:35;;;;;;;22.43;14.23;;;0.80;99.90;0.50;99247.00;;;;4954765;28;87996;-69
2023/12/01 06:28:03;;;;;;;23.57;15.93;;;-0.30;99.90;0.50;99237.00;;;;4961115;28;88734;-69
2023/12/01 06:30:33;;;;;;;26.37;15.07;;;0.70;99.90;0.40;99239.00;;;;4952338;28;88607;-69
2023/12/01 06:33:00;;;;;;;23.10;14.77;;;0.70;99.90;0.40;99229.00;;;;4958906;28;88092;-68
2023/12/01 06:35:26;;;;;;;26.57;15.87;;;0.70;99.90;0.40;99234.00;;;;4956063;28;88131;-69
2023/12/01 06:37:52;;;;;;;24.47;15.73;;;0.70;99.90;0.40;99230.00;;;;4956404;28;105440;-68
2023/12/01 06:40:20;;;;;;;27.70;16.17;;;0.60;99.90;0.40;99245.00;;;;4953898;28;116178;-69
2023/12/01 06:42:54;;;;;;;23.27;15.27;;;0.70;99.90;0.40;99247.00;;;;4950275;28;87776;-67
2023/12/01 06:45:23;;;;;;;22.20;14.07;;;0.80;99.90;0.40;99251.00;;;;4954559;28;87804;-68
2023/12/01 06:47:50;;;;;;;21.17;16.10;;;0.80;99.90;0.40;99257.00;;;;4954298;28;87486;-69
2023/12/01 06:50:18;;;;;;;24.73;15.57;;;1.60;99.90;0.40;99261.00;;;;4959554;28;89149;-69
2023/12/01 06:52:46;;;;;;;26.30;14.57;;;1.40;99.90;0.40;99258.00;;;;4958964;28;87830;-68
2023/12/01 06:55:12;;;;;;;20.83;15.23;;;0.70;99.90;0.40;99259.00;;;;4954732;28;88768;-68
2023/12/01 06:57:41;;;;;;;26.50;17.43;;;0.70;99.90;0.40;99258.00;;;;4955880;28;103993;-71
2023/12/01 07:00:28;;;;;;;25.37;15.07;;;0.80;99.90;0.40;99268.00;;;;4956380;28;88647;-69
2023/12/01 07:03:04;;;;;;;24.93;14.57;;;0.80;99.90;0.30;99272.00;;;;4953902;28;88010;-68
2023/12/01 07:05:31;;;;;;;25.67;14.60;;;0.70;99.90;0.30;99280.00;;;;4957168;28;87698;-68
2023/12/01 07:07:58;;;;;;;23.27;15.53;;;0.60;99.90;0.30;99280.00;;;;4954682;28;89569;-68
2023/12/01 07:10:25;;;;;;;23.87;16.00;;;0.70;99.90;0.30;99283.00;;;;4957171;28;88003;-69
2023/12/01 07:12:52;;;;;;;22.50;14.40;;;0.60;99.90;0.30;99286.00;;;;4957258;28;104611;-70
2023/12/01 07:15:22;;;;;;;24.57;15.87;;;0.60;99.90;0.30;99287.00;;;;4956679;28;88543;-69
2023/12/01 07:17:56;;;;;;;20.40;14.03;;;0.50;99.90;0.30;99294.00;;;;4953105;28;88670;-67
2023/12/01 07:20:22;;;;;;;29.50;17.73;;;0.60;99.90;0.30;99308.00;;;;4936921;28;89711;-67
2023/12/01 07:22:51;;;;;;;25.17;16.30;;;0.60;99.90;0.30;99293.00;;;;4959403;28;88486;-67
2023/12/01 07:25:21;;;;;;;34.53;18.10;;;0.60;99.90;0.40;99298.00;;;;4954008;28;87762;-68
2023/12/01 07:27:58;;;;;;;27.13;16.43;;;0.70;99.90;0.40;99316.00;;;;4964226;28;89295;-68
2023/12/01 07:30:25;;;;;;;32.77;20.33;;;0.80;99.90;0.40;99309.00;;;;4953335;28;87840;-67
2023/12/01 07:32:52;;;;;;;23.33;16.50;;;1.30;99.90;0.50;99318.00;;;;4951036;28;87904;-69
2023/12/01 07:35:18;;;;;;;29.53;19.00;;;0.70;99.90;0.40;99330.00;;;;4951357;28;89409;-69
2023/12/01 07:37:51;;;;;;;29.40;19.27;;;0.70;99.90;0.40;99321.00;;;;4954524;28;117499;-69
2023/12/01 07:40:19;;;;;;;27.13;18.57;;;0.70;99.90;0.50;99318.00;;;;4949064;28;87753;-69
2023/12/01 07:42:46;;;;;;;23.97;17.33;;;0.80;99.90;0.50;99322.00;;;;4955940;28;88007;-69
2023/12/01 07:45:17;;;;;;;28.50;16.87;;;0.80;99.90;0.50;99329.00;;;;4953504;28;99579;-70
2023/12/01 07:47:47;;;;;;;20.53;14.23;;;0.90;99.90;0.50;99329.00;;;;4952205;28;88955;-67
2023/12/01 07:50:14;;;;;;;24.93;12.90;;;0.70;99.90;0.50;99331.00;;;;4951773;28;88195;-69
2023/12/01 07:52:42;;;;;;;21.03;13.03;;;0.80;99.90;0.40;99338.00;;;;4953002;28;88023;-68
2023/12/01 07:55:09;;;;;;;19.93;13.87;;;0.70;99.90;0.50;99340.00;;;;4950003;28;87895;-69
2023/12/01 07:57:35;;;;;;;18.83;12.53;;;1.40;99.90;0.40;99339.00;;;;4948905;28;87986;-67
2023/12/01 08:00:02;;;;;;;21.97;13.97;;;0.90;99.90;0.40;99341.00;;;;4953978;28;88476;-68
2023/12/01 08:02:28;;;;;;;19.63;13.27;;;1.80;99.90;0.40;99338.00;;;;4956646;28;87090;-68
2023/12/01 08:04:53;;;;;;;23.30;13.83;;;0.80;99.90;0.50;99333.00;;;;4945513;28;87997;-67
2023/12/01 08:07:19;;;;;;;18.83;13.63;;;0.80;99.90;0.50;99346.00;;;;4950116;28;88896;-68
2023/12/01 08:09:45;;;;;;;18.77;13.47;;;0.80;99.90;0.50;99352.00;;;;4950115;28;117074;-67
2023/12/01 08:12:10;;;;;;;19.23;11.90;;;0.80;99.90;0.50;99355.00;;;;4954907;28;113699;-69
2023/12/01 08:14:36;;;;;;;18.30;11.83;;;0.70;99.90;0.50;99344.00;;;;4956391;28;88157;-68
2023/12/01 08:17:02;;;;;;;25.70;15.37;;;0.70;99.90;0.50;99342.00;;;;4958992;28;117758;-67
2023/12/01 08:19:28;;;;;;;24.93;13.10;;;0.70;99.90;0.50;99359.00;;;;4946911;28;101452;-68
2023/12/01 08:21:53;;;;;;;20.20;13.10;;;0.80;99.90;0.50;99369.00;;;;4949970;28;111926;-68
2023/12/01 08:24:20;;;;;;;17.43;13.60;;;0.80;99.90;0.50;99364.00;;;;4963560;28;109168;-68
2023/12/01 08:26:47;;;;;;;19.63;12.83;;;1.90;99.90;0.50;99370.00;;;;4955905;28;88377;-68
2023/12/01 08:29:13;;;;;;;19.33;14.17;;;0.90;99.90;0.50;99376.00;;;;4952695;28;88311;-67
2023/12/01 08:31:39;;;;;;;17.17;12.83;;;0.80;99.90;0.50;99384.00;;;;4954880;28;96596;-68
2023/12/01 08:34:08;;;;;;;18.13;12.97;;;0.80;99.90;0.50;99371.00;;;;4955912;28;88755;-68
2023/12/01 08:36:37;;;;;;;24.03;14.27;;;0.80;99.90;0.50;99377.00;;;;4954156;28;88501;-68
2023/12/01 08:39:04;;;;;;;17.50;13.63;;;0.80;99.90;0.50;99384.00;;;;4953278;28;87959;-69
2023/12/01 08:41:30;;;;;;;18.47;12.27;;;0.90;99.90;0.50;99378.00;;;;4957003;28;88055;-69
2023/12/01 08:43:58;;;;;;;20.30;13.03;;;0.90;99.90;0.60;99389.00;;;;4965357;28;88154;-69
2023/12/01 08:46:24;;;;;;;20.60;12.60;;;0.80;99.90;0.60;99389.00;;;;4954136;28;117426;-69
2023/12/01 08:48:50;;;;;;;21.90;14.63;;;0.80;99.90;0.60;99383.00;;;;4953704;28;117965;-69
2023/12/01 08:51:16;;;;;;;19.77;13.17;;;0.90;99.90;0.60;99385.00;;;;4950114;28;112632;-70
2023/12/01 08:53:42;;;;;;;23.80;14.17;;;0.90;99.90;0.60;99403.00;;;;4946279;28;91951;-69
2023/12/01 08:56:08;;;;;;;26.60;12.00;;;0.90;99.90;0.60;99400.00;;;;4954838;28;88749;-69
2023/12/01 08:58:33;;;;;;;18.13;12.60;;;0.90;99.90;0.60;99408.00;;;;4952988;28;88740;-69
2023/12/01 09:00:59;;;;;;;22.57;13.50;;;1.00;99.90;0.60;99410.00;;;;4964865;28;111860;-70
2023/12/01 09:03:25;;;;;;;17.43;12.53;;;0.90;99.90;0.60;99411.00;;;;4952753;28;107400;-70
2023/12/01 09:05:50;;;;;;;20.93;12.70;;;0.90;99.90;0.60;99414.00;;;;4955488;28;115981;-69
2023/12/01 09:08:16;;;;;;;16.23;11.87;;;1.00;99.90;0.60;99428.00;;;;4948613;28;117759;-69
2023/12/01 09:10:42;;;;;;;24.90;14.53;;;1.90;99.90;0.70;99422.00;;;;4959219;28;87995;-68
2023/12/01 09:13:08;;;;;;;21.80;13.60;;;1.00;99.90;0.60;99417.00;;;;4956019;28;111249;-69
2023/12/01 09:15:34;;;;;;;24.73;11.43;;;1.00;99.90;0.60;99419.00;;;;4953065;28;87995;-69
2023/12/01 09:17:59;;;;;;;16.80;12.10;;;1.00;99.90;0.60;99421.00;;;;4957541;28;111583;-69
2023/12/01 09:20:25;;;;;;;16.47;11.27;;;0.90;99.90;0.60;99426.00;;;;4959589;28;113188;-70
2023/12/01 09:22:50;;;;;;;23.07;11.30;;;0.90;99.90;0.60;99422.00;;;;4952185;28;107977;-69
2023/12/01 09:25:16;;;;;;;24.20;12.67;;;1.00;99.90;0.60;99415.00;;;;4956821;28;116335;-69
2023/12/01 09:27:42;;;;;;;12.97;9.70;;;1.40;99.90;0.60;99425.00;;;;4957964;28;105355;-69
2023/12/01 09:30:13;;;;;;;21.00;10.77;;;0.90;99.90;0.70;99423.00;;;;4954023;28;87562;-70
2023/12/01 09:32:39;;;;;;;12.80;10.40;;;1.00;99.90;0.70;99416.00;;;;4959443;28;87759;-70
2023/12/01 09:35:06;;;;;;;19.63;11.10;;;1.00;99.90;0.70;99418.00;;;;4958344;28;110772;-70
2023/12/01 09:37:31;;;;;;;20.07;11.40;;;1.00;99.90;0.70;99427.00;;;;4956361;28;107840;-71
2023/12/01 09:39:57;;;;;;;15.83;10.87;;;0.90;99.90;0.70;99400.00;;;;4964920;28;86882;-70
2023/12/01 09:42:24;;;;;;;16.03;12.10;;;1.70;99.90;0.70;99401.00;;;;4957790;28;108246;-68
2023/12/01 09:44:54;;;;;;;17.87;13.33;;;1.00;99.90;0.70;99400.00;;;;4958181;28;89029;-67
2023/12/01 09:47:22;;;;;;;23.73;15.13;;;1.00;99.90;0.80;99401.00;;;;4953115;28;88748;-69
2023/12/01 09:49:50;;;;;;;20.63;12.77;;;1.10;99.90;0.80;99405.00;;;;4958371;28;87757;-69
2023/12/01 09:52:16;;;;;;;16.77;10.10;;;1.00;99.90;0.80;99402.00;;;;4961046;28;88554;-71
2023/12/01 09:54:41;;;;;;;12.43;9.47;;;1.00;99.90;0.80;99405.00;;;;4956884;28;88291;-73
2023/12/01 09:57:07;;;;;;;15.10;10.20;;;1.10;99.90;0.80;99404.00;;;;4965354;28;113842;-71
2023/12/01 09:59:35;;;;;;;13.33;9.27;;;1.10;99.90;0.80;99403.00;;;;4946481;28;88889;-70
2023/12/01 10:02:03;;;;;;;12.73;9.30;;;1.10;99.90;0.70;99400.00;;;;4957434;28;91549;-69
2023/12/01 10:04:33;;;;;;;14.50;9.37;;;1.10;99.90;0.80;99405.00;;;;4957315;28;87623;-69
2023/12/01 10:07:00;;;;;;;11.43;9.43;;;1.10;99.90;0.70;99397.00;;;;4957949;28;116476;-69
2023/12/01 10:09:32;;;;;;;14.57;10.67;;;1.10;99.90;0.70;99397.00;;;;4955728;28;87479;-69
2023/12/01 10:12:12;;;;;;;10.20;9.10;;;1.00;99.90;0.70;99417.00;;;;4954282;28;88893;-70
2023/12/01 10:14:42;;;;;;;16.30;10.03;;;1.00;99.90;0.70;99414.00;;;;4951276;28;87921;-69
2023/12/01 10:17:10;;;;;;;13.00;9.57;;;1.10;99.90;0.70;99417.00;;;;4962264;28;88338;-69
2023/12/01 10:19:47;;;;;;;17.53;9.53;;;1.00;99.90;0.70;99409.00;;;;4951449;28;101451;-68
2023/12/01 10:22:16;;;;;;;13.57;9.13;;;1.00;99.90;0.70;99426.00;;;;4955712;28;92482;-69
2023/12/01 10:24:53;;;;;;;12.87;9.77;;;0.90;99.90;0.60;99425.00;;;;4961897;28;88369;-69
2023/12/01 10:27:19;;;;;;;14.43;11.03;;;1.10;99.90;0.60;99419.00;;;;4954890;28;88487;-70
2023/12/01 10:29:47;;;;;;;18.57;11.33;;;0.30;99.90;0.60;99414.00;;;;4958619;28;86841;-69
2023/12/01 10:32:14;;;;;;;19.03;10.77;;;1.00;99.90;0.60;99407.00;;;;4955661;28;87874;-69
2023/12/01 10:34:48;;;;;;;13.17;9.60;;;1.00;99.90;0.60;99408.00;;;;4964707;28;87681;-69
2023/12/01 10:37:15;;;;;;;16.20;10.30;;;1.00;99.90;0.60;99419.00;;;;4955961;28;89089;-70
2023/12/01 10:39:43;;;;;;;16.47;10.97;;;0.90;99.90;0.60;99412.00;;;;4955489;28;88063;-70
2023/12/01 10:42:09;;;;;;;19.80;10.57;;;0.90;99.90;0.60;99422.00;;;;4937306;28;103089;-68
2023/12/01 10:44:36;;;;;;;13.33;8.53;;;0.90;99.90;0.60;99422.00;;;;4954256;28;116989;-68
2023/12/01 10:47:03;;;;;;;17.03;10.77;;;1.10;99.90;0.60;99410.00;;;;4957566;28;87799;-68
2023/12/01 10:49:30;;;;;;;11.97;9.00;;;0.90;99.90;0.60;99408.00;;;;4948513;28;87970;-69
2023/12/01 10:51:56;;;;;;;14.60;9.47;;;0.90;99.90;0.60;99423.00;;;;4956754;28;87825;-69
2023/12/01 10:54:24;;;;;;;16.30;9.47;;;0.90;99.90;0.60;99420.00;;;;4966403;28;88534;-69